createdAt,value
2019-04-03T00:00:28.285Z,98717.00
2019-04-03T00:02:58.856Z,98717.00
2019-04-03T00:05:30.603Z,98711.00
2019-04-03T00:08:01.164Z,98716.00
2019-04-03T00:10:31.773Z,98715.00
2019-04-03T00:13:02.403Z,98713.00
2019-04-03T00:15:32.991Z,98710.00
2019-04-03T00:18:03.539Z,98702.00
2019-04-03T00:20:35.307Z,98709.00
2019-04-03T00:23:07.681Z,98715.00
2019-04-03T00:25:39.497Z,98704.00
2019-04-03T00:28:10.126Z,98696.00
2019-04-03T00:30:40.741Z,98694.00
2019-04-03T00:33:11.312Z,98700.00
2019-04-03T00:35:43.199Z,98691.00
2019-04-03T00:38:13.735Z,98693.00
2019-04-03T00:40:44.329Z,98691.00
2019-04-03T00:43:15.003Z,98695.00
2019-04-03T00:45:45.582Z,98691.00
2019-04-03T00:48:16.155Z,98694.00
2019-04-03T00:50:47.217Z,98686.00
2019-04-03T00:53:19.654Z,98698.00
2019-04-03T00:55:50.186Z,98697.00
2019-04-03T00:58:42.067Z,98686.00
2019-04-03T01:01:13.334Z,98694.00
2019-04-03T01:03:45.873Z,98691.00
2019-04-03T01:06:16.540Z,98683.00
2019-04-03T01:08:48.561Z,98678.00
2019-04-03T01:11:19.246Z,98668.00
2019-04-03T01:13:49.810Z,98664.00
2019-04-03T01:16:20.448Z,98659.00
2019-04-03T01:18:51.054Z,98650.00
2019-04-03T01:21:23.210Z,98651.00
2019-04-03T01:23:53.761Z,98651.00
2019-04-03T01:26:25.734Z,98648.00
2019-04-03T01:28:56.319Z,98640.00
2019-04-03T01:31:27.057Z,98639.00
2019-04-03T01:33:58.868Z,98637.00
2019-04-03T01:36:29.405Z,98630.00
2019-04-03T01:39:00.082Z,98625.00
2019-04-03T01:41:30.815Z,98633.00
2019-04-03T01:44:01.403Z,98621.00
2019-04-03T01:46:31.945Z,98611.00
2019-04-03T01:49:02.836Z,98609.00
2019-04-03T01:51:33.384Z,98608.00
2019-04-03T01:54:04.078Z,98608.00
2019-04-03T01:56:36.376Z,98607.00
2019-04-03T01:59:07.418Z,98606.00
2019-04-03T02:01:38.985Z,98596.00
2019-04-03T02:04:12.210Z,98599.00
2019-04-03T02:06:43.738Z,98585.00
2019-04-03T02:09:16.335Z,98582.00
2019-04-03T02:11:49.311Z,98583.00
2019-04-03T02:14:21.824Z,98577.00
2019-04-03T02:16:53.465Z,98577.00
2019-04-03T02:19:26.264Z,98563.00
2019-04-03T02:21:58.521Z,98566.00
2019-04-03T02:24:31.072Z,98563.00
2019-04-03T02:27:03.083Z,98563.00
2019-04-03T02:29:34.081Z,98556.00
2019-04-03T02:32:04.640Z,98550.00
2019-04-03T02:34:36.946Z,98546.00
2019-04-03T02:37:08.816Z,98542.00
2019-04-03T02:39:39.383Z,98542.00
2019-04-03T02:42:10.090Z,98529.00
2019-04-03T02:44:42.374Z,98524.00
2019-04-03T02:47:13.018Z,98516.00
2019-04-03T02:49:45.439Z,98520.00
2019-04-03T02:52:16.099Z,98507.00
2019-04-03T02:54:48.110Z,98501.00
2019-04-03T02:57:18.893Z,98509.00
2019-04-03T02:59:49.836Z,98510.00
2019-04-03T03:02:22.585Z,98515.00
2019-04-03T03:04:55.082Z,98518.00
2019-04-03T03:07:25.881Z,98516.00
2019-04-03T03:09:57.171Z,98518.00
2019-04-03T03:16:19.422Z,98516.00
2019-04-03T03:18:50.290Z,98528.00
2019-04-03T03:21:22.206Z,98522.00
2019-04-03T03:23:56.185Z,98522.00
2019-04-03T03:26:26.508Z,98537.00
2019-04-03T03:28:57.839Z,98530.00
2019-04-03T03:31:59.098Z,98538.00
2019-04-03T03:34:06.585Z,98539.00
2019-04-03T03:36:38.149Z,98527.00
2019-04-03T03:39:11.005Z,98534.00
2019-04-03T03:41:45.342Z,98534.00
2019-04-03T03:44:16.937Z,98540.00
2019-04-03T03:46:48.475Z,98541.00
2019-04-03T03:49:19.626Z,98519.00
2019-04-03T03:51:51.031Z,98515.00
2019-04-03T03:54:22.014Z,98510.00
2019-04-03T03:56:53.340Z,98518.00
2019-04-03T03:59:26.240Z,98514.00
2019-04-03T04:01:57.879Z,98511.00
2019-04-03T04:04:28.494Z,98507.00
2019-04-03T04:07:03.490Z,98504.00
2019-04-03T04:09:33.421Z,98497.00
2019-04-03T04:12:06.632Z,98501.00
2019-04-03T04:14:38.272Z,98503.00
2019-04-03T04:17:14.759Z,98497.00
2019-04-03T04:19:41.828Z,98495.00
2019-04-03T04:22:17.609Z,98493.00
2019-04-03T04:24:48.268Z,98499.00
2019-04-03T04:27:19.417Z,98497.00
2019-04-03T04:29:50.235Z,98491.00
2019-04-03T04:32:21.074Z,98481.00
2019-04-03T04:34:51.790Z,98491.00
2019-04-03T04:37:22.498Z,98488.00
2019-04-03T04:39:53.120Z,98493.00
2019-04-03T04:42:23.865Z,98494.00
2019-04-03T04:44:54.591Z,98495.00
2019-04-03T04:47:27.091Z,98492.00
2019-04-03T04:49:57.900Z,98498.00
2019-04-03T04:52:28.545Z,98501.00
2019-04-03T04:55:01.351Z,98494.00
2019-04-03T04:57:31.396Z,98488.00
2019-04-03T05:00:02.404Z,98499.00
2019-04-03T05:02:32.931Z,98509.00
2019-04-03T05:05:03.561Z,98511.00
2019-04-03T05:07:34.108Z,98516.00
2019-04-03T05:10:05.874Z,98510.00
2019-04-03T05:12:38.978Z,98511.00
2019-04-03T05:15:10.232Z,98503.00
2019-04-03T05:17:40.948Z,98500.00
2019-04-03T05:20:12.067Z,98498.00
2019-04-03T05:22:43.765Z,98494.00
2019-04-03T05:25:14.621Z,98500.00
2019-04-03T05:27:45.256Z,98501.00
2019-04-03T05:30:31.114Z,98500.00
2019-04-03T05:33:02.143Z,98492.00
2019-04-03T05:35:33.835Z,98504.00
2019-04-03T05:38:05.521Z,98504.00
2019-04-03T05:40:36.211Z,98502.00
2019-04-03T05:43:06.781Z,98501.00
2019-04-03T05:45:37.612Z,98499.00
2019-04-03T05:48:12.580Z,98506.00
2019-04-03T05:50:40.818Z,98506.00
2019-04-03T05:53:13.380Z,98501.00
2019-04-03T05:55:44.004Z,98510.00
2019-04-03T05:58:16.493Z,98512.00
2019-04-03T06:00:47.433Z,98502.00
2019-04-03T06:03:18.116Z,98510.00
2019-04-03T06:05:48.693Z,98504.00
2019-04-03T06:08:19.929Z,98505.00
2019-04-03T06:10:51.248Z,98511.00
2019-04-03T06:13:22.055Z,98502.00
2019-04-03T06:15:53.536Z,98504.00
2019-04-03T06:18:26.559Z,98509.00
2019-04-03T06:20:56.660Z,98501.00
2019-04-03T06:23:27.459Z,98502.00
2019-04-03T06:26:00.720Z,98500.00
2019-04-03T06:28:31.622Z,98498.00
2019-04-03T06:31:04.136Z,98499.00
2019-04-03T06:33:36.646Z,98498.00
2019-04-03T06:36:07.302Z,98494.00
2019-04-03T06:38:39.864Z,98493.00
2019-04-03T06:41:10.663Z,98500.00
2019-04-03T06:43:41.430Z,98489.00
2019-04-03T06:46:12.152Z,98477.00
2019-04-03T06:48:42.783Z,98477.00
2019-04-03T06:51:16.496Z,98474.00
2019-04-03T06:53:47.468Z,98475.00
2019-04-03T06:56:18.180Z,98477.00
2019-04-03T06:58:48.754Z,98477.00
2019-04-03T07:01:20.171Z,98469.00
2019-04-03T07:03:51.338Z,98463.00
2019-04-03T07:06:22.024Z,98470.00
2019-04-03T07:08:52.796Z,98480.00
2019-04-03T07:11:24.106Z,98473.00
2019-04-03T07:13:54.941Z,98472.00
2019-04-03T07:16:28.605Z,98465.00
2019-04-03T07:18:59.541Z,98473.00
2019-04-03T07:21:30.249Z,98478.00
2019-04-03T07:24:01.368Z,98472.00
2019-04-03T07:26:35.109Z,98475.00
2019-04-03T07:29:05.021Z,98469.00
2019-04-03T07:31:35.563Z,98469.00
2019-04-03T07:34:06.214Z,98469.00
2019-04-03T07:36:36.920Z,98465.00
2019-04-03T07:39:11.063Z,98455.00
2019-04-03T07:41:42.165Z,98459.00
2019-04-03T07:44:13.218Z,98455.00
2019-04-03T07:46:43.888Z,98446.00
2019-04-03T07:49:15.598Z,98451.00
2019-04-03T07:51:46.478Z,98455.00
2019-04-03T07:54:17.178Z,98460.00
2019-04-03T07:56:47.836Z,98463.00
2019-04-03T07:59:19.866Z,98461.00
2019-04-03T08:01:50.609Z,98462.00
2019-04-03T08:04:23.523Z,98453.00
2019-04-03T08:06:53.539Z,98456.00
2019-04-03T08:09:24.212Z,98441.00
2019-04-03T08:11:54.940Z,98456.00
2019-04-03T08:14:25.752Z,98457.00
2019-04-03T08:16:57.241Z,98455.00
2019-04-03T08:19:27.919Z,98457.00
2019-04-03T08:22:01.134Z,98459.00
2019-04-03T08:24:31.242Z,98451.00
2019-04-03T08:27:03.703Z,98457.00
2019-04-03T08:29:37.499Z,98455.00
2019-04-03T08:32:06.581Z,98461.00
2019-04-03T08:34:38.960Z,98460.00
2019-04-03T08:37:10.752Z,98465.00
2019-04-03T08:39:42.632Z,98461.00
2019-04-03T08:42:13.724Z,98466.00
2019-04-03T08:44:44.342Z,98456.00
2019-04-03T08:47:16.122Z,98455.00
2019-04-03T08:49:46.731Z,98465.00
2019-04-03T08:52:17.428Z,98455.00
2019-04-03T08:54:48.100Z,98458.00
2019-04-03T08:57:20.541Z,98460.00
2019-04-03T08:59:52.106Z,98450.00
2019-04-03T09:02:24.441Z,98454.00
2019-04-03T09:04:55.148Z,98450.00
2019-04-03T09:07:25.959Z,98452.00
2019-04-03T09:10:00.420Z,98446.00
2019-04-03T09:12:29.162Z,98444.00
2019-04-03T09:15:00.015Z,98439.00
2019-04-03T09:17:33.323Z,98434.00
2019-04-03T09:20:03.073Z,98430.00
2019-04-03T09:22:33.869Z,98430.00
2019-04-03T09:25:05.360Z,98424.00
2019-04-03T09:27:35.947Z,98427.00
2019-04-03T09:30:10.748Z,98437.00
2019-04-03T09:32:41.414Z,98432.00
2019-04-03T09:35:13.903Z,98429.00
2019-04-03T09:37:46.031Z,98423.00
2019-04-03T09:40:17.849Z,98419.00
2019-04-03T09:42:51.244Z,98416.00
2019-04-03T09:45:20.880Z,98414.00
2019-04-03T09:47:51.451Z,98417.00
2019-04-03T09:50:23.008Z,98408.00
2019-04-03T09:52:54.894Z,98410.00
2019-04-03T09:55:26.009Z,98407.00
2019-04-03T09:57:56.727Z,98402.00
2019-04-03T10:00:27.863Z,98401.00
2019-04-03T10:02:58.564Z,98391.00
2019-04-03T10:05:29.707Z,98395.00
2019-04-03T10:08:00.430Z,98404.00
2019-04-03T10:10:32.481Z,98388.00
2019-04-03T10:13:03.133Z,98397.00
2019-04-03T10:15:33.813Z,98393.00
2019-04-03T10:18:04.480Z,98391.00
2019-04-03T10:20:35.090Z,98389.00
2019-04-03T10:23:05.722Z,98391.00
2019-04-03T10:25:37.372Z,98378.00
2019-04-03T10:28:10.253Z,98390.00
2019-04-03T10:30:42.338Z,98383.00
2019-04-03T10:33:13.179Z,98387.00
2019-04-03T10:35:43.850Z,98389.00
2019-04-03T10:38:16.000Z,98388.00
2019-04-03T10:40:46.916Z,98386.00
2019-04-03T10:43:17.744Z,98384.00
2019-04-03T10:45:49.703Z,98389.00
2019-04-03T10:48:20.270Z,98383.00
2019-04-03T10:50:52.046Z,98378.00
2019-04-03T10:53:22.934Z,98383.00
2019-04-03T10:55:53.556Z,98381.00
2019-04-03T10:58:24.182Z,98384.00
2019-04-03T11:00:59.105Z,98377.00
2019-04-03T11:03:29.527Z,98364.00
2019-04-03T11:06:00.164Z,98360.00
2019-04-03T11:08:30.847Z,98361.00
2019-04-03T11:11:04.260Z,98359.00
2019-04-03T11:13:34.702Z,98359.00
2019-04-03T11:16:06.075Z,98365.00
2019-04-03T11:18:37.149Z,98352.00
2019-04-03T11:21:08.019Z,98350.00
2019-04-03T11:23:44.032Z,98347.00
2019-04-03T11:26:10.927Z,98335.00
2019-04-03T11:28:42.663Z,98337.00
2019-04-03T11:31:24.952Z,98335.00
2019-04-03T11:33:46.432Z,98323.00
2019-04-03T11:36:17.649Z,98328.00
2019-04-03T11:38:48.163Z,98330.00
2019-04-03T11:41:19.913Z,98328.00
2019-04-03T11:43:51.380Z,98325.00
2019-04-03T11:46:22.116Z,98313.00
2019-04-03T11:48:53.081Z,98307.00
2019-04-03T11:51:25.435Z,98319.00
2019-04-03T11:53:56.526Z,98317.00
2019-04-03T11:56:28.277Z,98325.00
2019-04-03T11:59:00.924Z,98315.00
2019-04-03T12:01:31.918Z,98321.00
2019-04-03T12:04:02.761Z,98311.00
2019-04-03T12:06:33.460Z,98303.00
2019-04-03T12:09:05.596Z,98297.00
2019-04-03T12:11:38.298Z,98292.00
2019-04-03T12:14:08.535Z,98304.00
2019-04-03T12:16:39.269Z,98293.00
2019-04-03T12:19:09.788Z,98289.00
2019-04-03T12:21:40.502Z,98285.00
2019-04-03T12:24:11.153Z,98287.00
2019-04-03T12:26:45.468Z,98288.00
2019-04-03T12:29:21.503Z,98287.00
2019-04-03T12:31:52.402Z,98291.00
2019-04-03T12:34:23.904Z,98288.00
2019-04-03T12:36:54.887Z,98283.00
2019-04-03T12:39:28.887Z,98270.00
2019-04-03T12:41:59.617Z,98272.00
2019-04-03T12:44:30.175Z,98261.00
2019-04-03T12:47:01.139Z,98258.00
2019-04-03T12:49:32.180Z,98255.00
2019-04-03T12:52:04.539Z,98249.00
2019-04-03T12:54:35.630Z,98259.00
2019-04-03T12:57:07.747Z,98248.00
2019-04-03T12:59:39.939Z,98256.00
2019-04-03T13:02:10.873Z,98254.00
2019-04-03T13:04:44.840Z,98256.00
2019-04-03T13:07:15.497Z,98253.00
2019-04-03T13:09:46.459Z,98249.00
2019-04-03T13:12:18.709Z,98239.00
2019-04-03T13:14:50.004Z,98240.00
2019-04-03T13:17:21.094Z,98238.00
2019-04-03T13:19:52.277Z,98234.00
2019-04-03T13:22:24.674Z,98236.00
2019-04-03T13:24:55.295Z,98230.00
2019-04-03T13:27:26.896Z,98232.00
2019-04-03T13:29:57.562Z,98232.00
2019-04-03T13:32:29.421Z,98229.00
2019-04-03T13:34:59.959Z,98235.00
2019-04-03T13:37:30.791Z,98228.00
2019-04-03T13:40:01.672Z,98232.00
2019-04-03T13:42:33.681Z,98223.00
2019-04-03T13:45:07.166Z,98220.00
2019-04-03T13:47:39.870Z,98214.00
2019-04-03T13:50:11.620Z,98214.00
2019-04-03T13:52:47.549Z,98208.00
2019-04-03T13:55:15.542Z,98207.00
2019-04-03T13:57:47.002Z,98203.00
2019-04-03T14:00:23.034Z,98206.00
2019-04-03T14:02:52.756Z,98194.00
2019-04-03T14:05:26.601Z,98197.00
2019-04-03T14:07:56.165Z,98187.00
2019-04-03T14:10:27.817Z,98170.00
2019-04-03T14:12:58.899Z,98176.00
2019-04-03T14:15:29.477Z,98178.00
2019-04-03T14:18:00.043Z,98165.00
2019-04-03T14:20:31.006Z,98169.00
2019-04-03T14:23:03.989Z,98160.00
2019-04-03T14:25:37.240Z,98165.00
2019-04-03T14:28:06.188Z,98161.00
2019-04-03T14:30:37.219Z,98156.00
2019-04-03T14:33:07.907Z,98155.00
2019-04-03T14:35:48.911Z,98142.00
2019-04-03T14:38:12.260Z,98143.00
2019-04-03T14:40:43.515Z,98135.00
2019-04-03T14:43:15.288Z,98137.00
2019-04-03T14:45:46.505Z,98141.00
2019-04-03T14:48:17.305Z,98135.00
2019-04-03T14:50:48.064Z,98146.00
2019-04-03T14:53:20.279Z,98129.00
2019-04-03T14:55:51.237Z,98125.00
2019-04-03T14:58:21.828Z,98126.00
2019-04-03T15:00:52.542Z,98138.00
2019-04-03T15:03:23.104Z,98122.00
2019-04-03T15:05:53.785Z,98125.00
2019-04-03T15:08:24.544Z,98114.00
2019-04-03T15:10:55.609Z,98114.00
2019-04-03T15:13:26.628Z,98102.00
2019-04-03T15:16:00.398Z,98103.00
2019-04-03T15:18:32.891Z,98100.00
2019-04-03T15:21:04.228Z,98102.00
2019-04-03T15:23:40.214Z,98096.00
2019-04-03T15:26:08.352Z,98104.00
2019-04-03T15:28:38.879Z,98098.00
2019-04-03T15:31:10.040Z,98085.00
2019-04-03T15:33:41.233Z,98091.00
2019-04-03T15:36:13.509Z,98080.00
2019-04-03T15:38:46.275Z,98088.00
2019-04-03T15:41:17.230Z,98099.00
2019-04-03T15:43:51.264Z,98086.00
2019-04-03T15:46:20.117Z,98090.00
2019-04-03T15:48:53.263Z,98082.00
2019-04-03T15:51:23.148Z,98098.00
2019-04-03T15:53:53.782Z,98072.00
2019-04-03T15:56:25.364Z,98069.00
2019-04-03T15:58:58.305Z,98079.00
2019-04-03T16:01:29.958Z,98073.00
2019-04-03T16:04:01.363Z,98061.00
2019-04-03T16:06:33.465Z,98064.00
2019-04-03T16:09:06.798Z,98066.00
2019-04-03T16:11:37.972Z,98063.00
2019-04-03T16:14:08.631Z,98056.00
2019-04-03T16:16:39.255Z,98053.00
2019-04-03T16:19:11.374Z,98053.00
2019-04-03T16:21:42.594Z,98050.00
2019-04-03T16:24:14.677Z,98044.00
2019-04-03T16:26:46.499Z,98050.00
2019-04-03T16:29:17.497Z,98049.00
2019-04-03T16:31:49.640Z,98043.00
2019-04-03T16:34:21.915Z,98046.00
2019-04-03T16:36:53.608Z,98043.00
2019-04-03T16:39:24.646Z,98040.00
2019-04-03T16:41:55.337Z,98037.00
2019-04-03T16:44:27.812Z,98032.00
2019-04-03T16:46:58.444Z,98034.00
2019-04-03T16:49:29.076Z,98030.00
2019-04-03T16:52:18.749Z,98018.00
2019-04-03T16:54:49.636Z,98025.00
2019-04-03T16:57:22.211Z,98028.00
2019-04-03T16:59:53.042Z,98028.00
2019-04-03T17:02:24.741Z,98026.00
2019-04-03T17:04:56.296Z,98016.00
2019-04-03T17:07:26.883Z,98023.00
2019-04-03T17:09:57.598Z,98011.00
2019-04-03T17:12:28.191Z,98011.00
2019-04-03T17:14:59.307Z,98005.00
2019-04-03T17:17:30.490Z,98011.00
2019-04-03T17:20:01.299Z,98009.00
2019-04-03T17:22:31.994Z,98003.00
2019-04-03T17:25:02.674Z,98006.00
2019-04-03T17:27:33.523Z,97996.00
2019-04-03T17:30:04.580Z,98004.00
2019-04-03T17:32:35.475Z,97995.00
2019-04-03T17:35:07.908Z,97998.00
2019-04-03T17:37:39.261Z,97997.00
2019-04-03T17:40:11.597Z,98000.00
2019-04-03T17:42:42.191Z,98003.00
2019-04-03T17:45:15.544Z,97999.00
2019-04-03T17:47:45.383Z,98003.00
2019-04-03T17:50:16.241Z,98006.00
2019-04-03T17:52:46.987Z,98004.00
2019-04-03T17:55:17.581Z,98009.00
2019-04-03T17:57:49.299Z,98008.00
2019-04-03T18:00:21.821Z,98006.00
2019-04-03T18:02:52.453Z,98009.00
2019-04-03T18:05:25.471Z,98006.00
2019-04-03T18:07:58.613Z,97999.00
2019-04-03T18:10:27.789Z,98008.00
2019-04-03T18:12:58.664Z,98009.00
2019-04-03T18:15:29.256Z,98013.00
2019-04-03T18:18:00.984Z,98013.00
2019-04-03T18:20:32.255Z,98002.00
2019-04-03T18:23:02.907Z,98004.00
2019-04-03T18:25:33.646Z,97994.00
2019-04-03T18:28:05.434Z,98005.00
2019-04-03T18:30:36.137Z,97991.00
2019-04-03T18:33:06.914Z,97986.00
2019-04-03T18:35:37.538Z,97994.00
2019-04-03T18:38:08.667Z,97996.00
2019-04-03T18:40:39.437Z,97999.00
2019-04-03T18:43:10.107Z,97997.00
2019-04-03T18:45:40.708Z,97999.00
2019-04-03T18:48:11.431Z,97984.00
2019-04-03T18:50:42.090Z,97991.00
2019-04-03T18:53:12.722Z,97988.00
2019-04-03T18:55:45.419Z,97995.00
2019-04-03T18:58:15.898Z,97989.00
2019-04-03T19:00:46.553Z,97998.00
2019-04-03T19:03:17.148Z,97989.00
2019-04-03T19:05:47.829Z,97997.00
2019-04-03T19:08:18.785Z,97994.00
2019-04-03T19:11:01.352Z,97989.00
2019-04-03T19:13:21.790Z,97988.00
2019-04-03T19:15:52.416Z,97982.00
2019-04-03T19:18:24.023Z,97986.00
2019-04-03T19:20:54.596Z,97990.00
2019-04-03T19:23:25.291Z,97987.00
2019-04-03T19:25:55.846Z,97987.00
2019-04-03T19:28:26.517Z,97988.00
2019-04-03T19:30:57.100Z,97985.00
2019-04-03T19:33:27.766Z,97983.00
2019-04-03T19:35:58.768Z,97978.00
2019-04-03T19:38:29.861Z,97981.00
2019-04-03T19:41:00.670Z,97981.00
2019-04-03T19:43:31.222Z,97975.00
2019-04-03T19:46:01.888Z,97976.00
2019-04-03T19:48:33.657Z,97979.00
2019-04-03T19:51:04.323Z,97975.00
2019-04-03T19:53:35.914Z,97979.00
2019-04-03T19:56:07.876Z,97977.00
2019-04-03T19:58:38.549Z,97970.00
2019-04-03T20:01:09.244Z,97969.00
2019-04-03T20:03:39.794Z,97976.00
2019-04-03T20:06:10.376Z,97966.00
2019-04-03T20:08:41.025Z,97966.00
2019-04-03T20:11:11.617Z,97964.00
2019-04-03T20:13:42.165Z,97952.00
2019-04-03T20:16:12.987Z,97963.00
2019-04-03T20:18:43.544Z,97961.00
2019-04-03T20:21:15.285Z,97960.00
2019-04-03T20:23:48.376Z,97963.00
2019-04-03T20:26:18.440Z,97962.00
2019-04-03T20:28:49.067Z,97960.00
2019-04-03T20:31:19.666Z,97958.00
2019-04-03T20:33:50.223Z,97965.00
2019-04-03T20:36:23.890Z,97954.00
2019-04-03T20:38:55.961Z,97955.00
2019-04-03T20:41:28.268Z,97956.00
2019-04-03T20:43:58.831Z,97956.00
2019-04-03T20:46:29.746Z,97956.00
2019-04-03T20:49:03.097Z,97950.00
2019-04-03T20:51:32.702Z,97945.00
2019-04-03T20:54:03.427Z,97942.00
2019-04-03T20:56:34.346Z,97942.00
2019-04-03T20:59:05.147Z,97944.00
2019-04-03T21:01:36.009Z,97943.00
2019-04-03T21:04:06.578Z,97948.00
2019-04-03T21:06:38.413Z,97943.00
2019-04-03T21:09:09.464Z,97948.00
2019-04-03T21:11:40.112Z,97948.00
2019-04-03T21:14:11.383Z,97944.00
2019-04-03T21:16:42.525Z,97948.00
2019-04-03T21:19:14.302Z,97956.00
2019-04-03T21:21:44.904Z,97953.00
2019-04-03T21:24:15.527Z,97953.00
2019-04-03T21:26:46.216Z,97946.00
2019-04-03T21:29:17.431Z,97947.00
2019-04-03T21:31:48.129Z,97945.00
2019-04-03T21:34:18.819Z,97951.00
2019-04-03T21:36:49.435Z,97949.00
2019-04-03T21:39:19.986Z,97951.00
2019-04-03T21:41:50.599Z,97947.00
2019-04-03T21:44:21.289Z,97948.00
2019-04-03T21:46:51.850Z,97945.00
2019-04-03T21:49:22.411Z,97938.00
2019-04-03T21:51:52.996Z,97942.00
2019-04-03T21:54:24.905Z,97945.00
2019-04-03T21:56:55.944Z,97935.00
2019-04-03T21:59:27.997Z,97936.00
2019-04-03T22:01:59.721Z,97930.00
2019-04-03T22:04:31.910Z,97930.00
2019-04-03T22:07:02.605Z,97940.00
2019-04-03T22:09:34.182Z,97933.00
2019-04-03T22:12:06.009Z,97927.00
2019-04-03T22:14:39.004Z,97926.00
2019-04-03T22:17:30.055Z,97938.00
2019-04-03T22:20:00.664Z,97932.00
2019-04-03T22:22:31.941Z,97924.00
2019-04-03T22:25:03.535Z,97931.00
2019-04-03T22:27:35.949Z,97926.00
2019-04-03T22:30:07.458Z,97929.00
2019-04-03T22:32:38.009Z,97926.00
2019-04-03T22:35:08.924Z,97931.00
2019-04-03T22:37:39.485Z,97917.00
2019-04-03T22:40:10.889Z,97908.00
2019-04-03T22:42:45.370Z,97911.00
2019-04-03T22:45:15.259Z,97910.00
2019-04-03T22:47:47.564Z,97912.00
2019-04-03T22:50:19.518Z,97906.00
2019-04-03T22:52:50.056Z,97904.00
2019-04-03T22:55:23.226Z,97905.00
2019-04-03T22:57:53.852Z,97909.00
2019-04-03T23:00:25.872Z,97916.00
2019-04-03T23:02:56.908Z,97903.00
2019-04-03T23:05:27.497Z,97907.00
2019-04-03T23:07:59.235Z,97902.00
2019-04-03T23:10:48.923Z,97910.00
2019-04-03T23:13:19.964Z,97902.00
2019-04-03T23:15:50.709Z,97895.00
2019-04-03T23:18:21.451Z,97893.00
2019-04-03T23:20:55.414Z,97886.00
2019-04-03T23:23:27.554Z,97892.00
2019-04-03T23:25:58.963Z,97899.00
2019-04-03T23:28:33.723Z,97893.00
2019-04-03T23:31:03.517Z,97895.00
2019-04-03T23:33:34.258Z,97886.00
2019-04-03T23:36:05.043Z,97886.00
2019-04-03T23:38:35.801Z,97880.00
2019-04-03T23:41:06.810Z,97884.00
2019-04-03T23:43:39.374Z,97879.00
2019-04-03T23:46:10.379Z,97879.00
2019-04-03T23:48:41.362Z,97882.00
2019-04-03T23:51:22.564Z,97878.00
2019-04-03T23:53:44.786Z,97872.00
2019-04-03T23:56:16.551Z,97871.00
2019-04-03T23:58:47.213Z,97869.00
